sensor_id;sensor_type;location;lat;lon;timestamp;temperature;humidity
65766;SHT31;52915;53.718;19.946;2023-07-09T00:05:00;14.81;73.42
65766;SHT31;52915;53.718;19.946;2023-07-09T00:10:05;14.80;73.56
65766;SHT31;52915;53.718;19.946;2023-07-09T00:15:19;14.87;73.41
65766;SHT31;52915;53.718;19.946;2023-07-09T00:20:25;14.81;73.55
65766;SHT31;52915;53.718;19.946;2023-07-09T00:25:29;14.71;73.49
65766;SHT31;52915;53.718;19.946;2023-07-09T00:30:33;14.63;73.73
65766;SHT31;52915;53.718;19.946;2023-07-09T00:35:37;14.51;74.04
65766;SHT31;52915;53.718;19.946;2023-07-09T00:41:03;14.46;74.25
65766;SHT31;52915;53.718;19.946;2023-07-09T00:51:32;14.49;74.26
65766;SHT31;52915;53.718;19.946;2023-07-09T00:56:45;14.46;74.56
65766;SHT31;52915;53.718;19.946;2023-07-09T01:01:55;14.26;75.09
65766;SHT31;52915;53.718;19.946;2023-07-09T01:07:01;14.21;75.15
65766;SHT31;52915;53.718;19.946;2023-07-09T01:12:05;14.23;75.18
65766;SHT31;52915;53.718;19.946;2023-07-09T01:17:12;14.24;75.43
65766;SHT31;52915;53.718;19.946;2023-07-09T01:22:17;14.23;75.44
65766;SHT31;52915;53.718;19.946;2023-07-09T01:27:37;14.16;75.49
65766;SHT31;52915;53.718;19.946;2023-07-09T01:32:49;14.08;75.47
65766;SHT31;52915;53.718;19.946;2023-07-09T01:37:59;13.97;75.59
65766;SHT31;52915;53.718;19.946;2023-07-09T01:43:05;13.92;75.57
65766;SHT31;52915;53.718;19.946;2023-07-09T01:48:10;13.90;75.54
65766;SHT31;52915;53.718;19.946;2023-07-09T01:53:21;13.94;75.43
65766;SHT31;52915;53.718;19.946;2023-07-09T01:58:29;13.89;75.50
65766;SHT31;52915;53.718;19.946;2023-07-09T02:03:34;13.82;75.74
65766;SHT31;52915;53.718;19.946;2023-07-09T02:08:39;13.76;75.93
65766;SHT31;52915;53.718;19.946;2023-07-09T02:13:43;13.76;75.99
65766;SHT31;52915;53.718;19.946;2023-07-09T02:18:48;13.79;75.96
65766;SHT31;52915;53.718;19.946;2023-07-09T02:23:52;13.81;76.04
65766;SHT31;52915;53.718;19.946;2023-07-09T02:28:57;13.82;76.05
65766;SHT31;52915;53.718;19.946;2023-07-09T02:34:01;13.82;76.00
65766;SHT31;52915;53.718;19.946;2023-07-09T02:39:06;13.80;76.11
65766;SHT31;52915;53.718;19.946;2023-07-09T02:44:11;13.74;76.17
65766;SHT31;52915;53.718;19.946;2023-07-09T02:49:15;13.66;76.22
65766;SHT31;52915;53.718;19.946;2023-07-09T02:54:20;13.59;76.39
65766;SHT31;52915;53.718;19.946;2023-07-09T02:59:24;13.56;76.67
65766;SHT31;52915;53.718;19.946;2023-07-09T03:04:30;13.55;76.89
65766;SHT31;52915;53.718;19.946;2023-07-09T03:09:34;13.58;76.92
65766;SHT31;52915;53.718;19.946;2023-07-09T03:14:39;13.52;77.04
65766;SHT31;52915;53.718;19.946;2023-07-09T03:19:43;13.44;77.49
65766;SHT31;52915;53.718;19.946;2023-07-09T03:24:47;13.39;78.00
65766;SHT31;52915;53.718;19.946;2023-07-09T03:29:51;13.49;78.33
65766;SHT31;52915;53.718;19.946;2023-07-09T03:34:55;13.52;78.52
65766;SHT31;52915;53.718;19.946;2023-07-09T03:39:59;13.58;78.67
65766;SHT31;52915;53.718;19.946;2023-07-09T03:45:03;13.69;78.89
65766;SHT31;52915;53.718;19.946;2023-07-09T03:50:09;13.94;78.60
65766;SHT31;52915;53.718;19.946;2023-07-09T03:55:15;14.20;78.37
65766;SHT31;52915;53.718;19.946;2023-07-09T04:00:19;14.38;78.11
65766;SHT31;52915;53.718;19.946;2023-07-09T04:05:26;14.53;77.64
65766;SHT31;52915;53.718;19.946;2023-07-09T04:10:32;14.57;77.45
65766;SHT31;52915;53.718;19.946;2023-07-09T04:15:36;14.73;77.53
65766;SHT31;52915;53.718;19.946;2023-07-09T04:20:40;14.88;77.50
65766;SHT31;52915;53.718;19.946;2023-07-09T04:25:44;15.05;77.15
65766;SHT31;52915;53.718;19.946;2023-07-09T04:30:49;15.20;77.39
65766;SHT31;52915;53.718;19.946;2023-07-09T04:35:55;15.34;77.48
65766;SHT31;52915;53.718;19.946;2023-07-09T04:40:59;15.55;77.39
65766;SHT31;52915;53.718;19.946;2023-07-09T04:46:04;15.81;77.09
65766;SHT31;52915;53.718;19.946;2023-07-09T04:51:08;16.06;76.36
65766;SHT31;52915;53.718;19.946;2023-07-09T04:56:13;16.33;75.58
65766;SHT31;52915;53.718;19.946;2023-07-09T05:01:17;16.44;75.47
65766;SHT31;52915;53.718;19.946;2023-07-09T05:06:21;16.47;75.53
65766;SHT31;52915;53.718;19.946;2023-07-09T05:11:25;16.74;75.25
65766;SHT31;52915;53.718;19.946;2023-07-09T05:16:30;17.19;74.57
65766;SHT31;52915;53.718;19.946;2023-07-09T05:21:34;17.50;73.81
65766;SHT31;52915;53.718;19.946;2023-07-09T05:26:39;17.90;73.01
65766;SHT31;52915;53.718;19.946;2023-07-09T05:31:43;18.01;72.64
65766;SHT31;52915;53.718;19.946;2023-07-09T05:36:48;18.04;72.83
65766;SHT31;52915;53.718;19.946;2023-07-09T05:41:52;18.12;72.72
65766;SHT31;52915;53.718;19.946;2023-07-09T05:46:56;18.41;72.48
65766;SHT31;52915;53.718;19.946;2023-07-09T05:52:00;18.65;72.05
65766;SHT31;52915;53.718;19.946;2023-07-09T05:57:05;18.89;71.57
65766;SHT31;52915;53.718;19.946;2023-07-09T06:02:15;19.27;70.81
65766;SHT31;52915;53.718;19.946;2023-07-09T06:07:23;19.50;70.17
65766;SHT31;52915;53.718;19.946;2023-07-09T06:12:27;19.72;69.09
65766;SHT31;52915;53.718;19.946;2023-07-09T06:17:31;20.08;68.39
65766;SHT31;52915;53.718;19.946;2023-07-09T06:22:36;20.49;67.41
65766;SHT31;52915;53.718;19.946;2023-07-09T06:27:40;20.81;66.04
65766;SHT31;52915;53.718;19.946;2023-07-09T06:32:45;20.96;64.79
65766;SHT31;52915;53.718;19.946;2023-07-09T06:37:49;21.07;64.36
65766;SHT31;52915;53.718;19.946;2023-07-09T06:42:54;21.34;63.31
65766;SHT31;52915;53.718;19.946;2023-07-09T06:47:59;21.40;62.35
65766;SHT31;52915;53.718;19.946;2023-07-09T06:53:04;21.43;61.92
65766;SHT31;52915;53.718;19.946;2023-07-09T06:58:08;21.34;61.40
65766;SHT31;52915;53.718;19.946;2023-07-09T07:03:13;21.68;61.85
65766;SHT31;52915;53.718;19.946;2023-07-09T07:08:18;22.12;60.88
65766;SHT31;52915;53.718;19.946;2023-07-09T07:13:24;22.47;59.88
65766;SHT31;52915;53.718;19.946;2023-07-09T07:18:32;22.52;58.46
65766;SHT31;52915;53.718;19.946;2023-07-09T07:23:37;22.74;58.33
65766;SHT31;52915;53.718;19.946;2023-07-09T07:28:41;22.99;57.97
65766;SHT31;52915;53.718;19.946;2023-07-09T07:38:57;23.75;56.07
65766;SHT31;52915;53.718;19.946;2023-07-09T07:44:01;24.14;55.21
65766;SHT31;52915;53.718;19.946;2023-07-09T07:49:05;24.33;54.04
65766;SHT31;52915;53.718;19.946;2023-07-09T07:54:11;24.06;53.26
65766;SHT31;52915;53.718;19.946;2023-07-09T07:59:17;24.05;52.87
65766;SHT31;52915;53.718;19.946;2023-07-09T08:04:21;24.14;53.92
65766;SHT31;52915;53.718;19.946;2023-07-09T08:09:26;24.51;53.33
65766;SHT31;52915;53.718;19.946;2023-07-09T08:14:30;24.90;53.41
65766;SHT31;52915;53.718;19.946;2023-07-09T08:19:51;25.07;51.31
65766;SHT31;52915;53.718;19.946;2023-07-09T08:24:57;25.33;51.17
65766;SHT31;52915;53.718;19.946;2023-07-09T08:30:02;25.60;50.72
65766;SHT31;52915;53.718;19.946;2023-07-09T08:35:07;25.79;50.38
65766;SHT31;52915;53.718;19.946;2023-07-09T08:40:17;26.22;49.47
65766;SHT31;52915;53.718;19.946;2023-07-09T08:45:35;26.61;47.81
65766;SHT31;52915;53.718;19.946;2023-07-09T08:56:22;25.88;46.75
65766;SHT31;52915;53.718;19.946;2023-07-09T09:01:36;25.61;46.45
65766;SHT31;52915;53.718;19.946;2023-07-09T09:12:41;26.51;47.71
65766;SHT31;52915;53.718;19.946;2023-07-09T09:17:58;26.57;45.42
65766;SHT31;52915;53.718;19.946;2023-07-09T09:23:20;26.87;44.60
65766;SHT31;52915;53.718;19.946;2023-07-09T09:28:26;26.88;44.38
65766;SHT31;52915;53.718;19.946;2023-07-09T09:33:44;27.36;43.98
65766;SHT31;52915;53.718;19.946;2023-07-09T09:38:52;27.60;42.92
65766;SHT31;52915;53.718;19.946;2023-07-09T09:43:57;27.82;42.01
65766;SHT31;52915;53.718;19.946;2023-07-09T09:49:02;28.01;41.88
65766;SHT31;52915;53.718;19.946;2023-07-09T09:54:10;28.17;40.63
65766;SHT31;52915;53.718;19.946;2023-07-09T09:59:25;28.28;40.28
65766;SHT31;52915;53.718;19.946;2023-07-09T10:04:37;28.50;40.34
65766;SHT31;52915;53.718;19.946;2023-07-09T10:09:45;28.75;38.92
65766;SHT31;52915;53.718;19.946;2023-07-09T10:15:01;28.79;39.39
65766;SHT31;52915;53.718;19.946;2023-07-09T10:26:13;29.78;38.57
65766;SHT31;52915;53.718;19.946;2023-07-09T10:42:57;30.43;36.61
65766;SHT31;52915;53.718;19.946;2023-07-09T10:48:08;30.25;36.41
65766;SHT31;52915;53.718;19.946;2023-07-09T10:59:35;30.29;35.19
65766;SHT31;52915;53.718;19.946;2023-07-09T11:04:45;30.31;34.85
65766;SHT31;52915;53.718;19.946;2023-07-09T11:10:23;30.43;35.44
65766;SHT31;52915;53.718;19.946;2023-07-09T11:15:42;30.72;35.53
65766;SHT31;52915;53.718;19.946;2023-07-09T11:26:26;30.46;35.26
65766;SHT31;52915;53.718;19.946;2023-07-09T11:36:48;30.58;35.05
65766;SHT31;52915;53.718;19.946;2023-07-09T11:41:58;30.87;35.20
65766;SHT31;52915;53.718;19.946;2023-07-09T11:52:48;30.85;35.27
65766;SHT31;52915;53.718;19.946;2023-07-09T11:58:11;31.04;34.06
65766;SHT31;52915;53.718;19.946;2023-07-09T12:03:24;30.67;34.51
65766;SHT31;52915;53.718;19.946;2023-07-09T12:08:34;30.97;34.92
65766;SHT31;52915;53.718;19.946;2023-07-09T12:13:42;31.04;34.15
65766;SHT31;52915;53.718;19.946;2023-07-09T12:18:47;30.74;34.90
65766;SHT31;52915;53.718;19.946;2023-07-09T12:23:53;30.71;35.35
65766;SHT31;52915;53.718;19.946;2023-07-09T12:29:01;31.18;35.21
65766;SHT31;52915;53.718;19.946;2023-07-09T12:34:05;31.67;35.37
65766;SHT31;52915;53.718;19.946;2023-07-09T12:39:19;31.79;33.99
65766;SHT31;52915;53.718;19.946;2023-07-09T12:44:30;31.72;34.18
65766;SHT31;52915;53.718;19.946;2023-07-09T12:49:41;31.53;34.02
65766;SHT31;52915;53.718;19.946;2023-07-09T12:54:52;30.85;34.79
65766;SHT31;52915;53.718;19.946;2023-07-09T13:00:05;31.11;35.28
65766;SHT31;52915;53.718;19.946;2023-07-09T13:05:22;31.39;35.26
65766;SHT31;52915;53.718;19.946;2023-07-09T13:10:29;31.14;35.13
65766;SHT31;52915;53.718;19.946;2023-07-09T13:15:43;30.66;35.61
65766;SHT31;52915;53.718;19.946;2023-07-09T13:20:56;30.22;35.59
65766;SHT31;52915;53.718;19.946;2023-07-09T13:26:01;30.54;35.58
65766;SHT31;52915;53.718;19.946;2023-07-09T13:31:16;30.76;35.22
65766;SHT31;52915;53.718;19.946;2023-07-09T13:36:24;30.84;34.31
65766;SHT31;52915;53.718;19.946;2023-07-09T13:41:29;31.14;34.51
65766;SHT31;52915;53.718;19.946;2023-07-09T13:46:33;31.27;34.49
65766;SHT31;52915;53.718;19.946;2023-07-09T13:51:37;31.10;34.08
65766;SHT31;52915;53.718;19.946;2023-07-09T13:56:42;30.67;34.72
65766;SHT31;52915;53.718;19.946;2023-07-09T14:01:47;30.64;35.26
65766;SHT31;52915;53.718;19.946;2023-07-09T14:06:54;30.85;34.92
65766;SHT31;52915;53.718;19.946;2023-07-09T14:11:58;30.99;33.72
65766;SHT31;52915;53.718;19.946;2023-07-09T14:17:03;30.72;34.08
65766;SHT31;52915;53.718;19.946;2023-07-09T14:22:41;30.95;34.03
65766;SHT31;52915;53.718;19.946;2023-07-09T14:27:43;31.10;33.87
65766;SHT31;52915;53.718;19.946;2023-07-09T14:32:49;31.03;33.46
65766;SHT31;52915;53.718;19.946;2023-07-09T14:37:54;30.96;33.13
65766;SHT31;52915;53.718;19.946;2023-07-09T14:43:00;30.99;33.88
65766;SHT31;52915;53.718;19.946;2023-07-09T14:48:14;31.15;33.48
65766;SHT31;52915;53.718;19.946;2023-07-09T14:53:26;31.31;33.66
65766;SHT31;52915;53.718;19.946;2023-07-09T14:58:31;31.57;32.87
65766;SHT31;52915;53.718;19.946;2023-07-09T15:03:40;31.57;32.34
65766;SHT31;52915;53.718;19.946;2023-07-09T15:08:53;31.59;32.17
65766;SHT31;52915;53.718;19.946;2023-07-09T15:14:09;31.50;32.49
65766;SHT31;52915;53.718;19.946;2023-07-09T15:19:19;31.45;32.11
65766;SHT31;52915;53.718;19.946;2023-07-09T15:24:36;31.48;32.21
65766;SHT31;52915;53.718;19.946;2023-07-09T15:29:46;31.63;32.31
65766;SHT31;52915;53.718;19.946;2023-07-09T15:34:50;32.19;31.36
65766;SHT31;52915;53.718;19.946;2023-07-09T15:39:56;32.25;31.09
65766;SHT31;52915;53.718;19.946;2023-07-09T15:45:01;32.30;31.15
65766;SHT31;52915;53.718;19.946;2023-07-09T15:50:12;32.43;30.63
65766;SHT31;52915;53.718;19.946;2023-07-09T15:55:25;32.45;30.50
65766;SHT31;52915;53.718;19.946;2023-07-09T16:00:32;32.49;30.74
65766;SHT31;52915;53.718;19.946;2023-07-09T16:05:38;32.47;30.88
65766;SHT31;52915;53.718;19.946;2023-07-09T16:10:43;32.47;30.41
65766;SHT31;52915;53.718;19.946;2023-07-09T16:15:48;32.54;30.88
65766;SHT31;52915;53.718;19.946;2023-07-09T16:20:53;32.45;30.88
65766;SHT31;52915;53.718;19.946;2023-07-09T16:25:59;32.15;31.00
65766;SHT31;52915;53.718;19.946;2023-07-09T16:31:03;31.88;31.03
65766;SHT31;52915;53.718;19.946;2023-07-09T16:36:17;31.52;31.75
65766;SHT31;52915;53.718;19.946;2023-07-09T16:41:22;31.31;32.33
65766;SHT31;52915;53.718;19.946;2023-07-09T16:46:26;31.02;32.83
65766;SHT31;52915;53.718;19.946;2023-07-09T16:51:31;30.67;33.04
65766;SHT31;52915;53.718;19.946;2023-07-09T16:56:35;30.45;33.55
65766;SHT31;52915;53.718;19.946;2023-07-09T17:01:39;30.21;33.95
65766;SHT31;52915;53.718;19.946;2023-07-09T17:06:45;29.99;34.31
65766;SHT31;52915;53.718;19.946;2023-07-09T17:11:55;29.54;34.69
65766;SHT31;52915;53.718;19.946;2023-07-09T17:17:02;29.01;35.42
65766;SHT31;52915;53.718;19.946;2023-07-09T17:22:21;28.52;36.13
65766;SHT31;52915;53.718;19.946;2023-07-09T17:27:36;28.01;36.85
65766;SHT31;52915;53.718;19.946;2023-07-09T17:32:40;27.55;37.61
65766;SHT31;52915;53.718;19.946;2023-07-09T17:37:50;27.17;38.55
65766;SHT31;52915;53.718;19.946;2023-07-09T17:42:59;26.87;39.15
65766;SHT31;52915;53.718;19.946;2023-07-09T17:48:09;26.58;40.00
65766;SHT31;52915;53.718;19.946;2023-07-09T17:53:29;26.30;40.63
65766;SHT31;52915;53.718;19.946;2023-07-09T17:58:37;26.05;41.40
65766;SHT31;52915;53.718;19.946;2023-07-09T18:03:45;25.80;42.25
65766;SHT31;52915;53.718;19.946;2023-07-09T18:08:50;25.49;42.81
65766;SHT31;52915;53.718;19.946;2023-07-09T18:13:54;25.20;43.29
65766;SHT31;52915;53.718;19.946;2023-07-09T18:18:58;24.97;43.75
65766;SHT31;52915;53.718;19.946;2023-07-09T18:24:07;24.69;44.38
65766;SHT31;52915;53.718;19.946;2023-07-09T18:29:23;24.48;44.80
65766;SHT31;52915;53.718;19.946;2023-07-09T18:34:39;24.32;45.31
65766;SHT31;52915;53.718;19.946;2023-07-09T18:39:44;24.18;45.56
65766;SHT31;52915;53.718;19.946;2023-07-09T18:44:48;24.05;45.98
65766;SHT31;52915;53.718;19.946;2023-07-09T18:49:53;23.92;46.43
65766;SHT31;52915;53.718;19.946;2023-07-09T18:54:58;23.75;46.88
65766;SHT31;52915;53.718;19.946;2023-07-09T19:00:02;23.52;47.48
65766;SHT31;52915;53.718;19.946;2023-07-09T19:05:23;23.25;48.94
65766;SHT31;52915;53.718;19.946;2023-07-09T19:10:41;23.11;49.65
65766;SHT31;52915;53.718;19.946;2023-07-09T19:15:46;22.94;50.51
65766;SHT31;52915;53.718;19.946;2023-07-09T19:20:54;22.79;51.35
65766;SHT31;52915;53.718;19.946;2023-07-09T19:26:00;22.62;52.38
65766;SHT31;52915;53.718;19.946;2023-07-09T19:31:05;22.40;53.40
65766;SHT31;52915;53.718;19.946;2023-07-09T19:36:23;22.22;54.09
65766;SHT31;52915;53.718;19.946;2023-07-09T19:41:33;21.94;55.39
65766;SHT31;52915;53.718;19.946;2023-07-09T19:46:48;21.74;55.94
65766;SHT31;52915;53.718;19.946;2023-07-09T19:51:53;21.66;56.24
65766;SHT31;52915;53.718;19.946;2023-07-09T19:56:59;21.51;56.77
65766;SHT31;52915;53.718;19.946;2023-07-09T20:02:37;21.35;57.15
65766;SHT31;52915;53.718;19.946;2023-07-09T20:07:36;21.11;57.40
65766;SHT31;52915;53.718;19.946;2023-07-09T20:12:42;20.90;57.54
65766;SHT31;52915;53.718;19.946;2023-07-09T20:17:53;20.82;57.52
65766;SHT31;52915;53.718;19.946;2023-07-09T20:23:02;20.71;57.90
65766;SHT31;52915;53.718;19.946;2023-07-09T20:28:14;20.53;58.90
65766;SHT31;52915;53.718;19.946;2023-07-09T20:33:29;20.34;59.67
65766;SHT31;52915;53.718;19.946;2023-07-09T20:38:35;20.15;59.72
65766;SHT31;52915;53.718;19.946;2023-07-09T20:43:40;20.00;59.87
65766;SHT31;52915;53.718;19.946;2023-07-09T20:48:44;19.80;60.52
65766;SHT31;52915;53.718;19.946;2023-07-09T20:53:50;19.65;60.86
65766;SHT31;52915;53.718;19.946;2023-07-09T20:58:54;19.46;61.62
65766;SHT31;52915;53.718;19.946;2023-07-09T21:03:59;19.30;61.78
65766;SHT31;52915;53.718;19.946;2023-07-09T21:09:13;19.23;61.86
65766;SHT31;52915;53.718;19.946;2023-07-09T21:14:20;19.12;62.22
65766;SHT31;52915;53.718;19.946;2023-07-09T21:19:29;19.03;62.69
65766;SHT31;52915;53.718;19.946;2023-07-09T21:24:38;18.93;62.99
65766;SHT31;52915;53.718;19.946;2023-07-09T21:29:43;18.84;63.29
65766;SHT31;52915;53.718;19.946;2023-07-09T21:34:47;18.77;63.49
65766;SHT31;52915;53.718;19.946;2023-07-09T21:39:53;18.70;63.97
65766;SHT31;52915;53.718;19.946;2023-07-09T21:44:58;18.59;64.45
65766;SHT31;52915;53.718;19.946;2023-07-09T21:50:04;18.40;65.81
65766;SHT31;52915;53.718;19.946;2023-07-09T21:55:22;18.12;67.33
65766;SHT31;52915;53.718;19.946;2023-07-09T22:00:29;18.05;67.54
65766;SHT31;52915;53.718;19.946;2023-07-09T22:05:49;17.90;68.26
65766;SHT31;52915;53.718;19.946;2023-07-09T22:10:54;17.81;68.31
65766;SHT31;52915;53.718;19.946;2023-07-09T22:15:58;17.74;68.47
65766;SHT31;52915;53.718;19.946;2023-07-09T22:21:07;17.65;68.50
65766;SHT31;52915;53.718;19.946;2023-07-09T22:26:13;17.66;68.15
65766;SHT31;52915;53.718;19.946;2023-07-09T22:31:20;17.68;68.04
65766;SHT31;52915;53.718;19.946;2023-07-09T22:36:24;17.62;68.34
65766;SHT31;52915;53.718;19.946;2023-07-09T22:41:28;17.51;68.70
65766;SHT31;52915;53.718;19.946;2023-07-09T22:46:33;17.45;68.97
65766;SHT31;52915;53.718;19.946;2023-07-09T22:51:37;17.32;69.38
65766;SHT31;52915;53.718;19.946;2023-07-09T22:56:42;17.14;69.62
65766;SHT31;52915;53.718;19.946;2023-07-09T23:01:46;17.13;69.78
65766;SHT31;52915;53.718;19.946;2023-07-09T23:06:52;17.12;70.20
65766;SHT31;52915;53.718;19.946;2023-07-09T23:11:56;17.03;70.56
65766;SHT31;52915;53.718;19.946;2023-07-09T23:17:04;17.00;70.53
65766;SHT31;52915;53.718;19.946;2023-07-09T23:22:15;16.96;70.58
65766;SHT31;52915;53.718;19.946;2023-07-09T23:27:19;16.87;70.51
65766;SHT31;52915;53.718;19.946;2023-07-09T23:32:25;16.80;70.39
65766;SHT31;52915;53.718;19.946;2023-07-09T23:37:29;16.68;70.43
65766;SHT31;52915;53.718;19.946;2023-07-09T23:42:33;16.55;70.60
65766;SHT31;52915;53.718;19.946;2023-07-09T23:47:37;16.45;70.78
